sensor_id;sensor_type;location;lat;lon;timestamp;P1;durP1;ratioP1;P2;durP2;ratioP2
43813;SDS011;29669;55.706;37.656;2023-07-31T00:01:50;6.22;;;3.83;;
43813;SDS011;29669;55.706;37.656;2023-07-31T00:04:18;5.20;;;3.65;;
43813;SDS011;29669;55.706;37.656;2023-07-31T00:06:45;11.23;;;3.70;;
43813;SDS011;29669;55.706;37.656;2023-07-31T00:09:13;6.88;;;3.72;;
43813;SDS011;29669;55.706;37.656;2023-07-31T00:11:41;8.68;;;3.60;;
43813;SDS011;29669;55.706;37.656;2023-07-31T00:14:14;5.95;;;3.13;;
43813;SDS011;29669;55.706;37.656;2023-07-31T00:16:42;5.03;;;3.65;;
43813;SDS011;29669;55.706;37.656;2023-07-31T00:19:09;5.28;;;3.35;;
43813;SDS011;29669;55.706;37.656;2023-07-31T00:21:37;8.25;;;3.42;;
43813;SDS011;29669;55.706;37.656;2023-07-31T00:24:05;6.50;;;3.58;;
43813;SDS011;29669;55.706;37.656;2023-07-31T00:26:32;6.15;;;3.35;;
43813;SDS011;29669;55.706;37.656;2023-07-31T00:29:00;5.00;;;3.58;;
43813;SDS011;29669;55.706;37.656;2023-07-31T00:31:28;7.32;;;3.47;;
43813;SDS011;29669;55.706;37.656;2023-07-31T00:33:56;7.88;;;3.83;;
43813;SDS011;29669;55.706;37.656;2023-07-31T00:36:23;5.40;;;3.25;;
43813;SDS011;29669;55.706;37.656;2023-07-31T00:38:51;7.72;;;3.13;;
43813;SDS011;29669;55.706;37.656;2023-07-31T00:41:19;7.43;;;3.60;;
43813;SDS011;29669;55.706;37.656;2023-07-31T00:43:51;2.83;;;2.58;;
43813;SDS011;29669;55.706;37.656;2023-07-31T00:46:18;4.78;;;3.53;;
43813;SDS011;29669;55.706;37.656;2023-07-31T00:48:47;4.75;;;3.40;;
43813;SDS011;29669;55.706;37.656;2023-07-31T00:51:16;5.88;;;3.80;;
43813;SDS011;29669;55.706;37.656;2023-07-31T00:53:44;9.30;;;3.72;;
43813;SDS011;29669;55.706;37.656;2023-07-31T00:56:13;11.43;;;3.75;;
43813;SDS011;29669;55.706;37.656;2023-07-31T00:58:41;7.78;;;3.50;;
43813;SDS011;29669;55.706;37.656;2023-07-31T01:01:08;6.57;;;3.50;;
43813;SDS011;29669;55.706;37.656;2023-07-31T01:03:36;6.93;;;3.40;;
43813;SDS011;29669;55.706;37.656;2023-07-31T01:08:46;4.97;;;3.38;;
43813;SDS011;29669;55.706;37.656;2023-07-31T01:11:28;5.68;;;3.30;;
43813;SDS011;29669;55.706;37.656;2023-07-31T01:13:58;6.03;;;3.30;;
43813;SDS011;29669;55.706;37.656;2023-07-31T01:16:29;5.90;;;3.03;;
43813;SDS011;29669;55.706;37.656;2023-07-31T01:18:57;6.75;;;3.22;;
43813;SDS011;29669;55.706;37.656;2023-07-31T01:21:41;4.53;;;3.17;;
43813;SDS011;29669;55.706;37.656;2023-07-31T01:24:29;6.82;;;3.10;;
43813;SDS011;29669;55.706;37.656;2023-07-31T01:27:17;6.07;;;3.20;;
43813;SDS011;29669;55.706;37.656;2023-07-31T01:29:56;3.67;;;3.00;;
43813;SDS011;29669;55.706;37.656;2023-07-31T01:32:59;3.45;;;2.92;;
43813;SDS011;29669;55.706;37.656;2023-07-31T01:35:46;4.80;;;2.90;;
43813;SDS011;29669;55.706;37.656;2023-07-31T01:38:48;7.10;;;2.88;;
43813;SDS011;29669;55.706;37.656;2023-07-31T01:41:38;3.35;;;2.90;;
43813;SDS011;29669;55.706;37.656;2023-07-31T01:44:09;5.82;;;3.15;;
43813;SDS011;29669;55.706;37.656;2023-07-31T01:46:37;5.57;;;2.95;;
43813;SDS011;29669;55.706;37.656;2023-07-31T01:49:08;4.22;;;3.13;;
43813;SDS011;29669;55.706;37.656;2023-07-31T01:51:40;11.18;;;3.28;;
43813;SDS011;29669;55.706;37.656;2023-07-31T01:54:08;6.65;;;3.10;;
43813;SDS011;29669;55.706;37.656;2023-07-31T01:56:36;4.90;;;3.22;;
43813;SDS011;29669;55.706;37.656;2023-07-31T01:59:04;7.45;;;3.13;;
43813;SDS011;29669;55.706;37.656;2023-07-31T02:01:32;3.40;;;2.92;;
43813;SDS011;29669;55.706;37.656;2023-07-31T02:04:01;5.10;;;3.20;;
43813;SDS011;29669;55.706;37.656;2023-07-31T02:06:30;5.45;;;3.13;;
43813;SDS011;29669;55.706;37.656;2023-07-31T02:08:58;5.75;;;3.10;;
43813;SDS011;29669;55.706;37.656;2023-07-31T02:11:25;5.05;;;3.15;;
43813;SDS011;29669;55.706;37.656;2023-07-31T02:13:55;3.97;;;3.10;;
43813;SDS011;29669;55.706;37.656;2023-07-31T02:16:23;3.53;;;3.05;;
43813;SDS011;29669;55.706;37.656;2023-07-31T02:18:51;5.68;;;2.92;;
43813;SDS011;29669;55.706;37.656;2023-07-31T02:21:21;5.15;;;2.92;;
43813;SDS011;29669;55.706;37.656;2023-07-31T02:23:49;4.70;;;3.00;;
43813;SDS011;29669;55.706;37.656;2023-07-31T02:26:19;6.13;;;3.05;;
43813;SDS011;29669;55.706;37.656;2023-07-31T02:28:48;5.07;;;3.50;;
43813;SDS011;29669;55.706;37.656;2023-07-31T02:31:16;4.05;;;3.38;;
43813;SDS011;29669;55.706;37.656;2023-07-31T02:33:48;4.57;;;2.80;;
43813;SDS011;29669;55.706;37.656;2023-07-31T02:36:16;3.63;;;3.17;;
43813;SDS011;29669;55.706;37.656;2023-07-31T02:38:43;4.90;;;3.05;;
43813;SDS011;29669;55.706;37.656;2023-07-31T02:41:11;4.60;;;3.15;;
43813;SDS011;29669;55.706;37.656;2023-07-31T02:43:41;4.93;;;3.30;;
43813;SDS011;29669;55.706;37.656;2023-07-31T02:46:09;4.75;;;2.90;;
43813;SDS011;29669;55.706;37.656;2023-07-31T02:48:37;3.88;;;3.42;;
43813;SDS011;29669;55.706;37.656;2023-07-31T02:51:05;3.85;;;3.00;;
43813;SDS011;29669;55.706;37.656;2023-07-31T02:53:33;4.13;;;2.97;;
43813;SDS011;29669;55.706;37.656;2023-07-31T02:56:01;5.95;;;2.97;;
43813;SDS011;29669;55.706;37.656;2023-07-31T02:58:29;3.03;;;2.72;;
43813;SDS011;29669;55.706;37.656;2023-07-31T03:00:58;3.33;;;3.03;;
43813;SDS011;29669;55.706;37.656;2023-07-31T03:03:29;5.15;;;2.90;;
43813;SDS011;29669;55.706;37.656;2023-07-31T03:05:57;5.88;;;2.97;;
43813;SDS011;29669;55.706;37.656;2023-07-31T03:08:24;3.80;;;2.80;;
43813;SDS011;29669;55.706;37.656;2023-07-31T03:10:52;5.82;;;2.92;;
43813;SDS011;29669;55.706;37.656;2023-07-31T03:13:22;4.25;;;3.10;;
43813;SDS011;29669;55.706;37.656;2023-07-31T03:15:50;5.25;;;3.10;;
43813;SDS011;29669;55.706;37.656;2023-07-31T03:18:17;4.25;;;2.83;;
43813;SDS011;29669;55.706;37.656;2023-07-31T03:20:45;5.22;;;3.22;;
43813;SDS011;29669;55.706;37.656;2023-07-31T03:23:13;3.88;;;2.83;;
43813;SDS011;29669;55.706;37.656;2023-07-31T03:25:41;4.80;;;3.03;;
43813;SDS011;29669;55.706;37.656;2023-07-31T03:28:22;3.67;;;3.08;;
43813;SDS011;29669;55.706;37.656;2023-07-31T03:30:50;5.88;;;3.00;;
43813;SDS011;29669;55.706;37.656;2023-07-31T03:33:19;4.82;;;2.92;;
43813;SDS011;29669;55.706;37.656;2023-07-31T03:40:23;3.58;;;3.28;;
43813;SDS011;29669;55.706;37.656;2023-07-31T03:43:05;5.38;;;3.30;;
43813;SDS011;29669;55.706;37.656;2023-07-31T03:46:22;5.15;;;2.90;;
43813;SDS011;29669;55.706;37.656;2023-07-31T03:53:33;8.00;;;3.13;;
43813;SDS011;29669;55.706;37.656;2023-07-31T03:57:49;4.18;;;3.00;;
43813;SDS011;29669;55.706;37.656;2023-07-31T04:00:24;5.13;;;3.53;;
43813;SDS011;29669;55.706;37.656;2023-07-31T04:03:10;6.13;;;3.47;;
43813;SDS011;29669;55.706;37.656;2023-07-31T04:05:37;8.02;;;3.47;;
43813;SDS011;29669;55.706;37.656;2023-07-31T04:08:08;4.70;;;3.17;;
43813;SDS011;29669;55.706;37.656;2023-07-31T04:10:35;9.90;;;3.42;;
43813;SDS011;29669;55.706;37.656;2023-07-31T04:13:04;3.70;;;2.40;;
43813;SDS011;29669;55.706;37.656;2023-07-31T04:15:33;5.18;;;3.28;;
43813;SDS011;29669;55.706;37.656;2023-07-31T04:18:01;6.63;;;3.03;;
43813;SDS011;29669;55.706;37.656;2023-07-31T04:20:28;6.15;;;3.28;;
43813;SDS011;29669;55.706;37.656;2023-07-31T04:22:58;4.30;;;3.05;;
43813;SDS011;29669;55.706;37.656;2023-07-31T04:25:28;4.82;;;2.95;;
43813;SDS011;29669;55.706;37.656;2023-07-31T04:28:15;5.72;;;3.28;;
43813;SDS011;29669;55.706;37.656;2023-07-31T04:31:19;4.28;;;3.20;;
43813;SDS011;29669;55.706;37.656;2023-07-31T04:33:55;3.10;;;2.70;;
43813;SDS011;29669;55.706;37.656;2023-07-31T04:36:39;4.80;;;3.45;;
43813;SDS011;29669;55.706;37.656;2023-07-31T04:39:57;4.05;;;2.80;;
43813;SDS011;29669;55.706;37.656;2023-07-31T04:42:41;6.78;;;2.90;;
43813;SDS011;29669;55.706;37.656;2023-07-31T04:45:09;6.05;;;3.63;;
43813;SDS011;29669;55.706;37.656;2023-07-31T04:48:18;5.22;;;2.88;;
43813;SDS011;29669;55.706;37.656;2023-07-31T04:51:21;5.63;;;3.15;;
43813;SDS011;29669;55.706;37.656;2023-07-31T04:54:39;4.97;;;2.88;;
43813;SDS011;29669;55.706;37.656;2023-07-31T04:58:11;5.75;;;3.47;;
43813;SDS011;29669;55.706;37.656;2023-07-31T05:01:26;4.20;;;3.10;;
43813;SDS011;29669;55.706;37.656;2023-07-31T05:04:47;4.38;;;2.95;;
43813;SDS011;29669;55.706;37.656;2023-07-31T05:08:04;8.73;;;3.13;;
43813;SDS011;29669;55.706;37.656;2023-07-31T05:11:39;5.63;;;3.25;;
43813;SDS011;29669;55.706;37.656;2023-07-31T05:14:11;6.13;;;2.90;;
43813;SDS011;29669;55.706;37.656;2023-07-31T05:17:01;6.57;;;2.80;;
43813;SDS011;29669;55.706;37.656;2023-07-31T05:19:35;5.28;;;3.45;;
43813;SDS011;29669;55.706;37.656;2023-07-31T05:22:49;7.45;;;3.10;;
43813;SDS011;29669;55.706;37.656;2023-07-31T05:25:45;10.60;;;3.35;;
43813;SDS011;29669;55.706;37.656;2023-07-31T05:28:45;4.40;;;2.92;;
43813;SDS011;29669;55.706;37.656;2023-07-31T05:32:07;5.55;;;2.95;;
43813;SDS011;29669;55.706;37.656;2023-07-31T05:39:11;5.50;;;2.47;;
43813;SDS011;29669;55.706;37.656;2023-07-31T05:42:53;7.75;;;3.08;;
43813;SDS011;29669;55.706;37.656;2023-07-31T06:04:00;4.90;;;2.60;;
43813;SDS011;29669;55.706;37.656;2023-07-31T06:06:26;3.97;;;2.65;;
43813;SDS011;29669;55.706;37.656;2023-07-31T06:13:18;6.03;;;3.53;;
43813;SDS011;29669;55.706;37.656;2023-07-31T06:15:44;9.65;;;2.70;;
43813;SDS011;29669;55.706;37.656;2023-07-31T06:18:11;9.50;;;2.85;;
43813;SDS011;29669;55.706;37.656;2023-07-31T06:20:40;5.28;;;2.55;;
43813;SDS011;29669;55.706;37.656;2023-07-31T06:23:14;6.32;;;2.92;;
43813;SDS011;29669;55.706;37.656;2023-07-31T06:25:41;5.75;;;3.03;;
43813;SDS011;29669;55.706;37.656;2023-07-31T06:28:07;6.35;;;2.70;;
43813;SDS011;29669;55.706;37.656;2023-07-31T06:30:33;2.70;;;2.10;;
43813;SDS011;29669;55.706;37.656;2023-07-31T06:33:00;7.13;;;2.55;;
43813;SDS011;29669;55.706;37.656;2023-07-31T06:35:26;10.50;;;2.70;;
43813;SDS011;29669;55.706;37.656;2023-07-31T06:37:52;4.82;;;2.72;;
43813;SDS011;29669;55.706;37.656;2023-07-31T06:40:18;5.07;;;2.30;;
43813;SDS011;29669;55.706;37.656;2023-07-31T06:42:45;6.50;;;2.40;;
43813;SDS011;29669;55.706;37.656;2023-07-31T06:45:11;3.40;;;2.08;;
43813;SDS011;29669;55.706;37.656;2023-07-31T06:47:37;2.75;;;1.85;;
43813;SDS011;29669;55.706;37.656;2023-07-31T06:50:04;3.60;;;1.90;;
43813;SDS011;29669;55.706;37.656;2023-07-31T06:52:32;3.00;;;1.55;;
43813;SDS011;29669;55.706;37.656;2023-07-31T06:55:16;5.07;;;1.83;;
43813;SDS011;29669;55.706;37.656;2023-07-31T06:57:49;6.18;;;2.22;;
43813;SDS011;29669;55.706;37.656;2023-07-31T07:00:19;3.17;;;2.17;;
43813;SDS011;29669;55.706;37.656;2023-07-31T07:02:47;3.38;;;2.10;;
43813;SDS011;29669;55.706;37.656;2023-07-31T07:05:16;3.63;;;1.88;;
43813;SDS011;29669;55.706;37.656;2023-07-31T07:07:45;3.17;;;2.22;;
43813;SDS011;29669;55.706;37.656;2023-07-31T07:10:13;4.13;;;1.90;;
43813;SDS011;29669;55.706;37.656;2023-07-31T07:12:41;2.95;;;1.88;;
43813;SDS011;29669;55.706;37.656;2023-07-31T07:15:08;3.70;;;1.80;;
43813;SDS011;29669;55.706;37.656;2023-07-31T07:17:36;5.00;;;1.83;;
43813;SDS011;29669;55.706;37.656;2023-07-31T07:20:04;6.15;;;2.53;;
43813;SDS011;29669;55.706;37.656;2023-07-31T07:22:32;2.08;;;1.75;;
43813;SDS011;29669;55.706;37.656;2023-07-31T07:25:00;6.00;;;2.13;;
43813;SDS011;29669;55.706;37.656;2023-07-31T07:27:29;4.13;;;2.22;;
43813;SDS011;29669;55.706;37.656;2023-07-31T07:29:57;1.63;;;1.52;;
43813;SDS011;29669;55.706;37.656;2023-07-31T07:32:25;5.10;;;1.80;;
43813;SDS011;29669;55.706;37.656;2023-07-31T07:34:53;3.45;;;1.73;;
43813;SDS011;29669;55.706;37.656;2023-07-31T07:37:20;3.13;;;1.77;;
43813;SDS011;29669;55.706;37.656;2023-07-31T07:39:48;3.45;;;1.70;;
43813;SDS011;29669;55.706;37.656;2023-07-31T07:42:15;2.38;;;2.00;;
43813;SDS011;29669;55.706;37.656;2023-07-31T07:44:43;2.28;;;1.58;;
43813;SDS011;29669;55.706;37.656;2023-07-31T07:47:12;1.70;;;1.60;;
43813;SDS011;29669;55.706;37.656;2023-07-31T07:49:40;2.30;;;1.50;;
43813;SDS011;29669;55.706;37.656;2023-07-31T07:52:07;3.05;;;1.88;;
43813;SDS011;29669;55.706;37.656;2023-07-31T07:54:35;3.20;;;1.83;;
43813;SDS011;29669;55.706;37.656;2023-07-31T07:57:03;1.83;;;1.55;;
43813;SDS011;29669;55.706;37.656;2023-07-31T07:59:31;2.70;;;1.83;;
43813;SDS011;29669;55.706;37.656;2023-07-31T08:01:58;1.83;;;1.70;;
43813;SDS011;29669;55.706;37.656;2023-07-31T08:04:26;2.45;;;1.70;;
43813;SDS011;29669;55.706;37.656;2023-07-31T08:06:54;4.82;;;2.00;;
43813;SDS011;29669;55.706;37.656;2023-07-31T08:09:21;4.18;;;1.70;;
43813;SDS011;29669;55.706;37.656;2023-07-31T08:11:49;2.47;;;1.73;;
43813;SDS011;29669;55.706;37.656;2023-07-31T08:14:16;6.95;;;2.20;;
43813;SDS011;29669;55.706;37.656;2023-07-31T08:16:44;3.20;;;2.67;;
43813;SDS011;29669;55.706;37.656;2023-07-31T08:19:11;2.95;;;2.05;;
43813;SDS011;29669;55.706;37.656;2023-07-31T08:21:39;5.45;;;2.40;;
43813;SDS011;29669;55.706;37.656;2023-07-31T08:24:07;4.82;;;1.80;;
43813;SDS011;29669;55.706;37.656;2023-07-31T08:26:35;3.35;;;1.88;;
43813;SDS011;29669;55.706;37.656;2023-07-31T08:29:03;4.57;;;2.00;;
43813;SDS011;29669;55.706;37.656;2023-07-31T08:31:31;2.03;;;1.80;;
43813;SDS011;29669;55.706;37.656;2023-07-31T08:33:58;2.20;;;2.00;;
43813;SDS011;29669;55.706;37.656;2023-07-31T08:36:27;3.10;;;1.90;;
43813;SDS011;29669;55.706;37.656;2023-07-31T08:38:56;2.15;;;1.85;;
43813;SDS011;29669;55.706;37.656;2023-07-31T08:41:24;3.72;;;1.75;;
43813;SDS011;29669;55.706;37.656;2023-07-31T08:43:53;1.98;;;1.77;;
43813;SDS011;29669;55.706;37.656;2023-07-31T08:46:22;3.28;;;2.42;;
43813;SDS011;29669;55.706;37.656;2023-07-31T08:48:50;3.80;;;2.25;;
43813;SDS011;29669;55.706;37.656;2023-07-31T08:51:20;2.65;;;1.77;;
43813;SDS011;29669;55.706;37.656;2023-07-31T08:53:47;2.17;;;1.98;;
43813;SDS011;29669;55.706;37.656;2023-07-31T08:56:15;2.50;;;2.00;;
43813;SDS011;29669;55.706;37.656;2023-07-31T08:58:44;2.70;;;1.80;;
43813;SDS011;29669;55.706;37.656;2023-07-31T09:01:13;4.43;;;1.90;;
43813;SDS011;29669;55.706;37.656;2023-07-31T09:03:42;2.13;;;1.92;;
43813;SDS011;29669;55.706;37.656;2023-07-31T09:06:11;2.72;;;2.20;;
43813;SDS011;29669;55.706;37.656;2023-07-31T09:08:40;2.88;;;2.15;;
43813;SDS011;29669;55.706;37.656;2023-07-31T09:11:09;3.58;;;2.00;;
43813;SDS011;29669;55.706;37.656;2023-07-31T09:13:37;2.50;;;1.90;;
43813;SDS011;29669;55.706;37.656;2023-07-31T09:16:07;2.10;;;2.00;;
43813;SDS011;29669;55.706;37.656;2023-07-31T09:18:53;3.15;;;2.53;;
43813;SDS011;29669;55.706;37.656;2023-07-31T09:21:25;2.25;;;2.05;;
43813;SDS011;29669;55.706;37.656;2023-07-31T09:23:55;2.08;;;1.88;;
43813;SDS011;29669;55.706;37.656;2023-07-31T09:26:29;2.10;;;1.90;;
43813;SDS011;29669;55.706;37.656;2023-07-31T09:28:58;3.50;;;2.00;;
43813;SDS011;29669;55.706;37.656;2023-07-31T09:34:05;2.50;;;1.98;;
43813;SDS011;29669;55.706;37.656;2023-07-31T09:36:39;2.63;;;2.10;;
43813;SDS011;29669;55.706;37.656;2023-07-31T09:39:17;2.10;;;1.90;;
43813;SDS011;29669;55.706;37.656;2023-07-31T09:41:47;3.72;;;3.03;;
43813;SDS011;29669;55.706;37.656;2023-07-31T09:44:21;2.57;;;2.30;;
43813;SDS011;29669;55.706;37.656;2023-07-31T09:46:49;2.83;;;2.20;;
43813;SDS011;29669;55.706;37.656;2023-07-31T09:49:17;4.95;;;2.42;;
43813;SDS011;29669;55.706;37.656;2023-07-31T09:51:45;2.78;;;2.10;;
43813;SDS011;29669;55.706;37.656;2023-07-31T09:54:16;6.43;;;2.45;;
43813;SDS011;29669;55.706;37.656;2023-07-31T09:56:45;3.20;;;2.30;;
43813;SDS011;29669;55.706;37.656;2023-07-31T09:59:18;2.88;;;2.40;;
43813;SDS011;29669;55.706;37.656;2023-07-31T10:01:50;5.47;;;2.78;;
43813;SDS011;29669;55.706;37.656;2023-07-31T10:04:19;2.40;;;2.13;;
43813;SDS011;29669;55.706;37.656;2023-07-31T10:06:54;2.83;;;2.28;;
43813;SDS011;29669;55.706;37.656;2023-07-31T10:09:22;4.63;;;2.10;;
43813;SDS011;29669;55.706;37.656;2023-07-31T10:12:00;2.78;;;1.88;;
43813;SDS011;29669;55.706;37.656;2023-07-31T10:14:32;2.85;;;2.25;;
43813;SDS011;29669;55.706;37.656;2023-07-31T10:17:00;3.50;;;1.92;;
43813;SDS011;29669;55.706;37.656;2023-07-31T10:19:29;2.53;;;2.30;;
43813;SDS011;29669;55.706;37.656;2023-07-31T10:21:59;2.53;;;2.17;;
43813;SDS011;29669;55.706;37.656;2023-07-31T10:24:27;3.13;;;1.92;;
43813;SDS011;29669;55.706;37.656;2023-07-31T10:26:58;2.75;;;2.15;;
43813;SDS011;29669;55.706;37.656;2023-07-31T10:29:28;2.53;;;2.30;;
43813;SDS011;29669;55.706;37.656;2023-07-31T10:31:57;2.55;;;2.20;;
43813;SDS011;29669;55.706;37.656;2023-07-31T10:34:28;3.58;;;2.25;;
43813;SDS011;29669;55.706;37.656;2023-07-31T10:37:43;2.53;;;2.08;;
43813;SDS011;29669;55.706;37.656;2023-07-31T10:39:57;3.35;;;2.30;;
43813;SDS011;29669;55.706;37.656;2023-07-31T10:45:32;3.05;;;2.38;;
43813;SDS011;29669;55.706;37.656;2023-07-31T10:48:04;6.05;;;2.28;;
43813;SDS011;29669;55.706;37.656;2023-07-31T10:50:54;4.32;;;2.20;;
43813;SDS011;29669;55.706;37.656;2023-07-31T10:55:57;2.20;;;2.00;;
43813;SDS011;29669;55.706;37.656;2023-07-31T10:58:45;4.35;;;2.67;;
43813;SDS011;29669;55.706;37.656;2023-07-31T11:01:49;2.58;;;2.10;;
43813;SDS011;29669;55.706;37.656;2023-07-31T11:04:25;2.65;;;2.17;;
43813;SDS011;29669;55.706;37.656;2023-07-31T11:06:58;4.10;;;2.60;;
43813;SDS011;29669;55.706;37.656;2023-07-31T11:09:27;3.47;;;2.45;;
43813;SDS011;29669;55.706;37.656;2023-07-31T11:11:57;5.70;;;2.50;;
43813;SDS011;29669;55.706;37.656;2023-07-31T11:14:26;4.35;;;2.40;;
43813;SDS011;29669;55.706;37.656;2023-07-31T11:16:54;2.67;;;2.17;;
43813;SDS011;29669;55.706;37.656;2023-07-31T11:19:24;2.55;;;2.08;;
43813;SDS011;29669;55.706;37.656;2023-07-31T11:21:52;2.58;;;2.30;;
43813;SDS011;29669;55.706;37.656;2023-07-31T11:24:20;2.33;;;2.05;;
43813;SDS011;29669;55.706;37.656;2023-07-31T11:26:51;2.30;;;2.10;;
43813;SDS011;29669;55.706;37.656;2023-07-31T11:29:20;3.42;;;2.03;;
43813;SDS011;29669;55.706;37.656;2023-07-31T11:31:48;3.90;;;1.80;;
43813;SDS011;29669;55.706;37.656;2023-07-31T11:34:16;2.55;;;2.22;;
43813;SDS011;29669;55.706;37.656;2023-07-31T11:36:54;2.67;;;2.10;;
43813;SDS011;29669;55.706;37.656;2023-07-31T11:39:24;2.25;;;1.92;;
43813;SDS011;29669;55.706;37.656;2023-07-31T11:41:58;2.45;;;2.13;;
43813;SDS011;29669;55.706;37.656;2023-07-31T11:44:26;2.72;;;1.95;;
43813;SDS011;29669;55.706;37.656;2023-07-31T11:46:57;3.00;;;2.20;;
43813;SDS011;29669;55.706;37.656;2023-07-31T11:49:25;2.95;;;2.10;;
43813;SDS011;29669;55.706;37.656;2023-07-31T11:51:53;2.47;;;2.10;;
43813;SDS011;29669;55.706;37.656;2023-07-31T11:54:21;8.35;;;2.55;;
43813;SDS011;29669;55.706;37.656;2023-07-31T11:56:48;2.33;;;2.13;;
43813;SDS011;29669;55.706;37.656;2023-07-31T11:59:17;2.58;;;2.10;;
43813;SDS011;29669;55.706;37.656;2023-07-31T12:01:45;3.85;;;2.45;;
43813;SDS011;29669;55.706;37.656;2023-07-31T12:04:13;4.18;;;2.17;;
43813;SDS011;29669;55.706;37.656;2023-07-31T12:06:41;3.30;;;2.50;;
43813;SDS011;29669;55.706;37.656;2023-07-31T12:09:09;4.25;;;2.75;;
43813;SDS011;29669;55.706;37.656;2023-07-31T12:11:46;4.35;;;3.00;;
43813;SDS011;29669;55.706;37.656;2023-07-31T12:14:21;6.35;;;3.20;;
43813;SDS011;29669;55.706;37.656;2023-07-31T12:16:59;7.15;;;2.67;;
43813;SDS011;29669;55.706;37.656;2023-07-31T12:19:34;7.78;;;3.10;;
43813;SDS011;29669;55.706;37.656;2023-07-31T12:22:02;2.95;;;2.60;;
43813;SDS011;29669;55.706;37.656;2023-07-31T12:24:38;8.07;;;3.03;;
43813;SDS011;29669;55.706;37.656;2023-07-31T12:27:11;7.88;;;3.30;;
43813;SDS011;29669;55.706;37.656;2023-07-31T12:29:41;6.10;;;2.97;;
43813;SDS011;29669;55.706;37.656;2023-07-31T12:32:22;9.13;;;2.90;;
43813;SDS011;29669;55.706;37.656;2023-07-31T12:34:52;3.67;;;2.83;;
43813;SDS011;29669;55.706;37.656;2023-07-31T12:37:23;7.93;;;2.90;;
43813;SDS011;29669;55.706;37.656;2023-07-31T12:39:51;3.17;;;2.60;;
43813;SDS011;29669;55.706;37.656;2023-07-31T12:42:21;8.35;;;2.58;;
43813;SDS011;29669;55.706;37.656;2023-07-31T12:44:49;5.72;;;2.65;;
43813;SDS011;29669;55.706;37.656;2023-07-31T12:47:16;4.63;;;2.78;;
43813;SDS011;29669;55.706;37.656;2023-07-31T12:49:44;4.28;;;2.92;;
43813;SDS011;29669;55.706;37.656;2023-07-31T12:52:12;4.38;;;2.88;;
43813;SDS011;29669;55.706;37.656;2023-07-31T12:54:39;5.65;;;2.63;;
43813;SDS011;29669;55.706;37.656;2023-07-31T12:57:07;5.45;;;2.88;;
43813;SDS011;29669;55.706;37.656;2023-07-31T12:59:34;5.97;;;2.90;;
43813;SDS011;29669;55.706;37.656;2023-07-31T13:02:02;3.08;;;2.67;;
43813;SDS011;29669;55.706;37.656;2023-07-31T13:04:29;5.15;;;2.75;;
43813;SDS011;29669;55.706;37.656;2023-07-31T13:06:57;2.97;;;2.58;;
43813;SDS011;29669;55.706;37.656;2023-07-31T13:09:25;2.95;;;2.55;;
43813;SDS011;29669;55.706;37.656;2023-07-31T13:11:52;6.00;;;2.40;;
43813;SDS011;29669;55.706;37.656;2023-07-31T13:14:20;4.03;;;2.83;;
43813;SDS011;29669;55.706;37.656;2023-07-31T13:16:47;6.65;;;3.40;;
43813;SDS011;29669;55.706;37.656;2023-07-31T13:19:15;5.43;;;3.42;;
43813;SDS011;29669;55.706;37.656;2023-07-31T13:21:42;9.32;;;4.00;;
43813;SDS011;29669;55.706;37.656;2023-07-31T13:24:10;4.45;;;2.53;;
43813;SDS011;29669;55.706;37.656;2023-07-31T13:26:38;3.42;;;2.88;;
43813;SDS011;29669;55.706;37.656;2023-07-31T13:29:06;5.70;;;2.80;;
43813;SDS011;29669;55.706;37.656;2023-07-31T13:31:33;3.05;;;2.40;;
43813;SDS011;29669;55.706;37.656;2023-07-31T13:34:01;3.15;;;2.50;;
43813;SDS011;29669;55.706;37.656;2023-07-31T13:36:28;8.23;;;2.95;;
43813;SDS011;29669;55.706;37.656;2023-07-31T13:38:56;4.85;;;2.72;;
43813;SDS011;29669;55.706;37.656;2023-07-31T13:41:24;5.28;;;2.90;;
43813;SDS011;29669;55.706;37.656;2023-07-31T13:43:51;5.75;;;3.00;;
43813;SDS011;29669;55.706;37.656;2023-07-31T13:46:19;7.95;;;3.22;;
43813;SDS011;29669;55.706;37.656;2023-07-31T13:48:46;3.10;;;2.40;;
43813;SDS011;29669;55.706;37.656;2023-07-31T13:51:14;4.93;;;2.80;;
43813;SDS011;29669;55.706;37.656;2023-07-31T13:53:42;8.10;;;3.22;;
43813;SDS011;29669;55.706;37.656;2023-07-31T13:56:09;4.32;;;2.97;;
43813;SDS011;29669;55.706;37.656;2023-07-31T13:58:37;5.45;;;2.28;;
43813;SDS011;29669;55.706;37.656;2023-07-31T14:01:04;4.68;;;2.72;;
43813;SDS011;29669;55.706;37.656;2023-07-31T14:03:32;7.97;;;2.85;;
43813;SDS011;29669;55.706;37.656;2023-07-31T14:06:00;11.68;;;3.45;;
43813;SDS011;29669;55.706;37.656;2023-07-31T14:08:28;7.32;;;2.85;;
43813;SDS011;29669;55.706;37.656;2023-07-31T14:10:56;7.70;;;3.28;;
43813;SDS011;29669;55.706;37.656;2023-07-31T14:13:24;8.98;;;2.70;;
43813;SDS011;29669;55.706;37.656;2023-07-31T14:15:51;8.25;;;2.75;;
43813;SDS011;29669;55.706;37.656;2023-07-31T14:18:20;9.30;;;3.17;;
43813;SDS011;29669;55.706;37.656;2023-07-31T14:20:48;4.68;;;3.15;;
43813;SDS011;29669;55.706;37.656;2023-07-31T14:23:15;5.38;;;2.67;;
43813;SDS011;29669;55.706;37.656;2023-07-31T14:25:43;4.65;;;3.22;;
43813;SDS011;29669;55.706;37.656;2023-07-31T14:28:11;8.02;;;3.10;;
43813;SDS011;29669;55.706;37.656;2023-07-31T14:30:38;6.80;;;2.80;;
43813;SDS011;29669;55.706;37.656;2023-07-31T14:33:06;6.50;;;3.33;;
43813;SDS011;29669;55.706;37.656;2023-07-31T14:35:34;3.95;;;2.72;;
43813;SDS011;29669;55.706;37.656;2023-07-31T14:38:02;5.22;;;2.60;;
43813;SDS011;29669;55.706;37.656;2023-07-31T14:40:30;5.18;;;2.55;;
43813;SDS011;29669;55.706;37.656;2023-07-31T14:42:57;4.35;;;2.78;;
43813;SDS011;29669;55.706;37.656;2023-07-31T14:45:25;5.63;;;2.83;;
43813;SDS011;29669;55.706;37.656;2023-07-31T14:47:52;5.85;;;3.00;;
43813;SDS011;29669;55.706;37.656;2023-07-31T14:50:20;8.55;;;2.72;;
43813;SDS011;29669;55.706;37.656;2023-07-31T14:52:50;10.30;;;2.75;;
43813;SDS011;29669;55.706;37.656;2023-07-31T14:55:18;4.15;;;2.90;;
43813;SDS011;29669;55.706;37.656;2023-07-31T14:57:46;7.65;;;2.70;;
43813;SDS011;29669;55.706;37.656;2023-07-31T15:00:13;3.63;;;3.00;;
43813;SDS011;29669;55.706;37.656;2023-07-31T15:02:42;12.32;;;3.08;;
43813;SDS011;29669;55.706;37.656;2023-07-31T15:05:09;6.05;;;2.97;;
43813;SDS011;29669;55.706;37.656;2023-07-31T15:07:37;3.80;;;2.78;;
43813;SDS011;29669;55.706;37.656;2023-07-31T15:10:05;4.25;;;2.55;;
43813;SDS011;29669;55.706;37.656;2023-07-31T15:12:33;5.53;;;3.40;;
43813;SDS011;29669;55.706;37.656;2023-07-31T15:15:01;6.53;;;3.05;;
43813;SDS011;29669;55.706;37.656;2023-07-31T15:17:29;6.75;;;2.78;;
43813;SDS011;29669;55.706;37.656;2023-07-31T15:19:57;4.40;;;3.10;;
43813;SDS011;29669;55.706;37.656;2023-07-31T15:22:26;5.13;;;2.30;;
43813;SDS011;29669;55.706;37.656;2023-07-31T15:24:54;5.50;;;2.88;;
43813;SDS011;29669;55.706;37.656;2023-07-31T15:27:24;4.22;;;2.63;;
43813;SDS011;29669;55.706;37.656;2023-07-31T15:29:51;3.15;;;2.78;;
43813;SDS011;29669;55.706;37.656;2023-07-31T15:32:19;7.13;;;2.97;;
43813;SDS011;29669;55.706;37.656;2023-07-31T15:34:47;4.30;;;3.00;;
43813;SDS011;29669;55.706;37.656;2023-07-31T15:37:15;4.93;;;3.20;;
43813;SDS011;29669;55.706;37.656;2023-07-31T15:39:44;4.60;;;2.58;;
43813;SDS011;29669;55.706;37.656;2023-07-31T15:42:12;7.10;;;2.75;;
43813;SDS011;29669;55.706;37.656;2023-07-31T15:44:40;4.53;;;2.55;;
43813;SDS011;29669;55.706;37.656;2023-07-31T15:47:07;5.35;;;2.90;;
43813;SDS011;29669;55.706;37.656;2023-07-31T15:49:35;2.58;;;2.33;;
43813;SDS011;29669;55.706;37.656;2023-07-31T15:52:03;4.18;;;2.97;;